Terminal Aerodrome Forecast
Issued by NWS Mobile, AL

Home | Current Version | Previous Version | Text Only | Print | Product List | Glossary On
Versions: 1 2 3 4 5 6 7 8 9 10 11 12 13 14 15 16
000
FTUS44 KMOB 222320
TAFPNS
TAF
KPNS 222320Z 2300/2324 18007KT P6SM SCT250
     FM230300 02006KT P6SM SCT250
     FM231200 09009KT P6SM SCT025
     FM231500 10009KT P6SM BKN020
     FM231800 12013KT P6SM OVC020=

USA.gov is the U.S. government's official web portal to all federal, state and local government web resources and services.